createdAt,value
2017-08-01T00:01:53.888Z,80.10
2017-08-01T00:04:20.159Z,80.10
2017-08-01T00:06:46.443Z,81.10
2017-08-01T00:09:12.706Z,80.90
2017-08-01T00:11:39.370Z,80.30
2017-08-01T00:14:05.642Z,80.30
2017-08-01T00:16:31.890Z,80.20
2017-08-01T00:18:58.172Z,80.00
2017-08-01T00:21:24.431Z,80.20
2017-08-01T00:23:50.729Z,80.60
2017-08-01T00:26:16.994Z,80.60
2017-08-01T00:28:43.276Z,80.80
2017-08-01T00:31:09.553Z,80.70
2017-08-01T00:33:36.270Z,80.80
2017-08-01T00:36:02.534Z,80.60
2017-08-01T00:38:28.804Z,80.80
2017-08-01T00:40:55.074Z,80.60
2017-08-01T00:43:21.344Z,80.50
2017-08-01T00:45:48.006Z,81.20
2017-08-01T00:48:14.304Z,81.20
2017-08-01T00:50:40.598Z,80.80
2017-08-01T00:53:06.863Z,81.10
2017-08-01T00:55:33.866Z,80.80
2017-08-01T00:58:00.137Z,80.80
2017-08-01T01:00:26.773Z,81.20
2017-08-01T01:02:53.061Z,81.20
2017-08-01T01:05:19.346Z,81.10
2017-08-01T01:07:45.613Z,80.70
2017-08-01T01:10:11.902Z,81.10
2017-08-01T01:12:38.551Z,80.50
2017-08-01T01:15:04.801Z,80.50
2017-08-01T01:17:31.108Z,80.70
2017-08-01T01:19:57.376Z,81.10
2017-08-01T01:22:23.939Z,80.80
2017-08-01T01:24:50.205Z,80.60
2017-08-01T01:27:16.452Z,80.40
2017-08-01T01:29:42.742Z,80.30
2017-08-01T01:32:09.426Z,81.70
2017-08-01T01:34:35.756Z,81.70
2017-08-01T01:37:02.074Z,81.10
2017-08-01T01:39:28.377Z,80.80
2017-08-01T01:41:54.668Z,81.10
2017-08-01T01:44:21.020Z,81.10
2017-08-01T01:46:47.319Z,81.20
2017-08-01T01:49:13.626Z,81.10
2017-08-01T01:51:39.968Z,81.40
2017-08-01T01:54:06.272Z,81.00
2017-08-01T01:56:32.565Z,80.90
2017-08-01T01:58:58.831Z,81.10
2017-08-01T02:01:25.099Z,80.90
2017-08-01T02:03:51.408Z,80.70
2017-08-01T02:06:17.724Z,81.10
2017-08-01T02:08:44.016Z,81.20
2017-08-01T02:11:10.634Z,81.70
2017-08-01T02:13:36.929Z,81.80
2017-08-01T02:16:03.219Z,81.90
2017-08-01T02:18:29.517Z,81.80
2017-08-01T02:20:55.837Z,81.50
2017-08-01T02:23:22.144Z,82.00
2017-08-01T02:25:48.420Z,81.60
2017-08-01T02:28:14.713Z,81.70
2017-08-01T02:30:41.014Z,81.70
2017-08-01T02:33:07.798Z,81.60
2017-08-01T02:35:34.086Z,81.30
2017-08-01T02:38:00.361Z,81.10
2017-08-01T02:40:26.669Z,81.30
2017-08-01T02:42:52.914Z,81.40
2017-08-01T02:45:19.210Z,81.40
2017-08-01T02:47:45.465Z,81.20
2017-08-01T02:50:11.739Z,81.00
2017-08-01T02:52:38.010Z,81.00
2017-08-01T02:55:04.293Z,81.50
2017-08-01T02:57:30.586Z,81.10
2017-08-01T02:59:56.860Z,81.30
2017-08-01T03:02:23.184Z,81.10
2017-08-01T03:04:49.488Z,81.10
2017-08-01T03:07:15.791Z,80.90
2017-08-01T03:09:42.077Z,80.70
2017-08-01T03:12:08.321Z,81.10
2017-08-01T03:14:34.588Z,81.50
2017-08-01T03:17:00.857Z,81.40
2017-08-01T03:19:27.134Z,81.30
2017-08-01T03:21:53.393Z,81.30
2017-08-01T03:24:19.701Z,82.10
2017-08-01T03:26:48.473Z,82.00
2017-08-01T03:29:14.746Z,82.60
2017-08-01T03:31:41.043Z,83.10
2017-08-01T03:34:07.295Z,83.00
2017-08-01T03:36:33.557Z,83.10
2017-08-01T03:38:59.836Z,83.90
2017-08-01T03:41:26.134Z,84.30
2017-08-01T03:43:52.385Z,84.20
2017-08-01T03:46:19.132Z,83.80
2017-08-01T03:48:45.398Z,83.20
2017-08-01T03:51:11.678Z,82.90
2017-08-01T03:53:37.943Z,82.80
2017-08-01T03:56:04.209Z,83.50
2017-08-01T03:58:30.852Z,83.60
2017-08-01T04:00:57.476Z,84.00
2017-08-01T04:03:24.154Z,84.90
2017-08-01T04:05:50.406Z,84.90
2017-08-01T04:08:16.703Z,85.00
2017-08-01T04:10:42.958Z,84.60
2017-08-01T04:13:09.235Z,84.50
2017-08-01T04:15:35.865Z,84.10
2017-08-01T04:18:02.260Z,84.10
2017-08-01T04:20:28.546Z,84.20
2017-08-01T04:22:54.822Z,84.70
2017-08-01T04:25:21.077Z,84.30
2017-08-01T04:27:47.346Z,83.90
2017-08-01T04:30:13.620Z,83.80
2017-08-01T04:32:40.341Z,83.70
2017-08-01T04:35:06.597Z,83.20
2017-08-01T04:37:32.846Z,83.50
2017-08-01T04:39:59.146Z,83.40
2017-08-01T04:42:25.882Z,83.40
2017-08-01T04:45:03.154Z,83.20
2017-08-01T04:47:29.440Z,83.00
2017-08-01T04:49:55.732Z,82.90
2017-08-01T04:52:22.007Z,82.80
2017-08-01T04:54:48.691Z,82.40
2017-08-01T04:57:14.957Z,82.30
2017-08-01T04:59:41.232Z,82.40
2017-08-01T05:02:07.536Z,82.40
2017-08-01T05:04:33.798Z,82.30
2017-08-01T05:07:00.081Z,82.30
2017-08-01T05:09:26.323Z,82.00
2017-08-01T05:11:52.671Z,82.50
2017-08-01T05:14:18.937Z,83.00
2017-08-01T05:16:45.226Z,83.40
2017-08-01T05:19:11.522Z,83.10
2017-08-01T05:21:38.158Z,82.80
2017-08-01T05:24:04.815Z,82.80
2017-08-01T05:26:31.075Z,82.80
2017-08-01T05:28:57.374Z,82.50
2017-08-01T05:31:23.652Z,82.70
2017-08-01T05:33:49.946Z,82.80
2017-08-01T05:36:16.223Z,83.20
2017-08-01T05:38:42.840Z,83.50
2017-08-01T05:41:09.136Z,83.50
2017-08-01T05:43:35.397Z,83.00
2017-08-01T05:46:01.664Z,82.80
2017-08-01T05:48:27.993Z,82.50
2017-08-01T05:50:54.283Z,81.90
2017-08-01T05:53:20.550Z,81.70
2017-08-01T05:55:46.865Z,81.30
2017-08-01T05:58:13.135Z,81.20
2017-08-01T06:00:39.426Z,80.20
2017-08-01T06:03:05.726Z,79.70
2017-08-01T06:05:32.018Z,78.60
2017-08-01T06:07:58.308Z,77.80
2017-08-01T06:10:24.612Z,76.90
2017-08-01T06:12:50.890Z,76.40
2017-08-01T06:15:17.250Z,75.70
2017-08-01T06:17:43.864Z,76.40
2017-08-01T06:20:10.513Z,74.70
2017-08-01T06:22:37.157Z,74.30
2017-08-01T06:25:03.473Z,74.30
2017-08-01T06:27:29.724Z,74.00
2017-08-01T06:29:56.020Z,74.10
2017-08-01T06:32:22.261Z,74.70
2017-08-01T06:34:48.939Z,75.10
2017-08-01T06:37:15.210Z,75.10
2017-08-01T06:39:41.502Z,75.10
2017-08-01T06:42:07.757Z,75.10
2017-08-01T06:44:34.294Z,74.90
2017-08-01T06:47:00.557Z,75.10
2017-08-01T06:49:26.818Z,74.80
2017-08-01T06:51:53.127Z,75.00
2017-08-01T06:54:19.372Z,74.60
2017-08-01T06:56:45.645Z,74.40
2017-08-01T06:59:11.909Z,74.40
2017-08-01T07:01:38.232Z,74.60
2017-08-01T07:04:04.609Z,74.60
2017-08-01T07:06:30.889Z,74.20
2017-08-01T07:08:58.732Z,73.90
2017-08-01T07:11:25.088Z,73.90
2017-08-01T07:13:51.372Z,73.90
2017-08-01T07:16:17.683Z,73.80
2017-08-01T07:18:44.579Z,74.30
2017-08-01T07:21:13.400Z,74.80
2017-08-01T07:23:40.283Z,75.20
2017-08-01T07:26:07.575Z,75.50
2017-08-01T07:28:35.014Z,75.80
2017-08-01T07:31:01.298Z,75.90
2017-08-01T07:33:28.026Z,75.30
2017-08-01T07:35:55.217Z,75.50
2017-08-01T07:38:21.499Z,74.10
2017-08-01T07:40:48.810Z,74.40
2017-08-01T07:43:15.155Z,73.40
2017-08-01T07:45:41.440Z,73.50
2017-08-01T07:48:08.309Z,71.60
2017-08-01T07:50:35.403Z,70.50
2017-08-01T07:53:01.704Z,69.40
2017-08-01T07:55:28.023Z,70.90
2017-08-01T07:57:54.348Z,71.50
2017-08-01T08:00:20.632Z,70.10
2017-08-01T08:02:47.958Z,71.30
2017-08-01T08:05:14.331Z,70.70
2017-08-01T08:07:40.782Z,71.10
2017-08-01T08:10:07.125Z,71.60
2017-08-01T08:12:34.715Z,70.70
2017-08-01T08:15:01.048Z,70.30
2017-08-01T08:17:27.473Z,69.90
2017-08-01T08:19:53.769Z,71.00
2017-08-01T08:22:20.088Z,71.60
2017-08-01T08:24:46.382Z,71.80
2017-08-01T08:27:12.674Z,71.60
2017-08-01T08:29:39.288Z,71.40
2017-08-01T08:32:05.540Z,71.10
2017-08-01T08:34:31.800Z,71.40
2017-08-01T08:36:58.103Z,70.90
2017-08-01T08:39:24.365Z,69.30
2017-08-01T08:41:50.654Z,69.20
2017-08-01T08:44:16.901Z,68.70
2017-08-01T08:46:43.178Z,68.40
2017-08-01T08:49:09.474Z,67.90
2017-08-01T08:51:35.828Z,67.70
2017-08-01T08:54:02.139Z,68.20
2017-08-01T08:56:28.423Z,68.80
2017-08-01T08:58:54.736Z,68.50
2017-08-01T09:01:20.983Z,68.30
2017-08-01T09:03:47.709Z,67.60
2017-08-01T09:06:13.989Z,68.90
2017-08-01T09:08:40.286Z,67.60
2017-08-01T09:11:06.665Z,66.30
2017-08-01T09:13:32.943Z,68.10
2017-08-01T09:15:59.242Z,66.80
2017-08-01T09:18:25.549Z,67.60
2017-08-01T09:20:51.818Z,68.10
2017-08-01T09:23:18.088Z,67.30
2017-08-01T09:25:45.083Z,67.00
2017-08-01T09:28:11.324Z,67.00
2017-08-01T09:30:37.591Z,65.90
2017-08-01T09:33:03.868Z,66.70
2017-08-01T09:35:30.152Z,66.90
2017-08-01T09:37:56.443Z,65.70
2017-08-01T09:40:22.726Z,65.10
2017-08-01T09:42:49.405Z,65.20
2017-08-01T09:45:15.709Z,65.00
2017-08-01T09:47:41.969Z,64.10
2017-08-01T09:50:08.281Z,65.10
2017-08-01T09:52:34.580Z,63.70
2017-08-01T09:55:00.873Z,63.90
2017-08-01T09:57:27.160Z,62.40
2017-08-01T09:59:53.484Z,64.10
2017-08-01T10:02:19.783Z,64.10
2017-08-01T10:04:46.446Z,62.80
2017-08-01T10:07:12.727Z,62.80
2017-08-01T10:09:39.351Z,60.80
2017-08-01T10:12:05.649Z,61.90
2017-08-01T10:14:31.930Z,61.80
2017-08-01T10:16:58.199Z,61.90
2017-08-01T10:19:24.481Z,61.30
2017-08-01T10:21:50.766Z,60.50
2017-08-01T10:24:17.127Z,60.60
2017-08-01T10:26:43.424Z,59.90
2017-08-01T10:29:09.750Z,59.30
2017-08-01T10:31:36.038Z,58.90
2017-08-01T10:34:02.316Z,59.10
2017-08-01T10:36:28.612Z,59.40
2017-08-01T10:38:55.280Z,58.00
2017-08-01T10:41:21.551Z,58.00
2017-08-01T10:43:47.835Z,55.60
2017-08-01T10:46:14.101Z,58.40
2017-08-01T10:48:40.376Z,57.50
2017-08-01T10:51:06.683Z,57.80
2017-08-01T10:53:32.992Z,58.70
2017-08-01T10:55:59.298Z,57.00
2017-08-01T10:58:25.940Z,56.50
2017-08-01T11:00:52.259Z,56.60
2017-08-01T11:03:18.535Z,56.10
2017-08-01T11:05:44.826Z,53.50
2017-08-01T11:08:11.112Z,56.10
2017-08-01T11:10:37.417Z,57.30
2017-08-01T11:13:03.696Z,56.10
2017-08-01T11:15:30.004Z,57.00
2017-08-01T11:17:56.278Z,56.30
2017-08-01T11:20:22.812Z,54.70
2017-08-01T11:22:49.065Z,52.30
2017-08-01T11:25:15.351Z,53.90
2017-08-01T11:27:41.662Z,53.10
2017-08-01T11:30:08.302Z,51.30
2017-08-01T11:32:34.966Z,50.90
2017-08-01T11:35:01.210Z,50.90
2017-08-01T11:37:27.498Z,49.90
2017-08-01T11:39:53.794Z,46.90
2017-08-01T11:42:20.091Z,43.60
2017-08-01T11:44:46.380Z,41.60
2017-08-01T11:47:13.031Z,36.40
2017-08-01T11:49:39.302Z,36.40
2017-08-01T11:52:05.571Z,33.60
2017-08-01T11:54:31.895Z,30.70
2017-08-01T11:56:58.182Z,29.20
2017-08-01T11:59:24.465Z,28.40
2017-08-01T12:01:50.752Z,28.90
2017-08-01T12:04:17.305Z,27.50
2017-08-01T12:06:43.582Z,27.20
2017-08-01T12:09:09.862Z,28.00
2017-08-01T12:11:36.179Z,28.10
2017-08-01T12:14:02.455Z,27.10
2017-08-01T12:16:28.752Z,27.10
2017-08-01T12:18:55.016Z,25.30
2017-08-01T12:21:22.400Z,22.90
2017-08-01T12:23:48.685Z,22.90
2017-08-01T12:26:14.982Z,22.10
2017-08-01T12:28:41.283Z,21.60
2017-08-01T12:31:07.551Z,21.80
2017-08-01T12:33:33.840Z,20.30
2017-08-01T12:36:00.149Z,20.30
2017-08-01T12:38:26.446Z,18.70
2017-08-01T12:40:52.729Z,18.90
2017-08-01T12:43:19.386Z,18.50
2017-08-01T12:45:45.648Z,17.90
2017-08-01T12:48:11.938Z,18.10
2017-08-01T12:50:38.273Z,17.40
2017-08-01T12:53:05.774Z,17.10
2017-08-01T12:55:32.106Z,17.60
2017-08-01T12:57:58.432Z,17.10
2017-08-01T13:00:24.752Z,17.00
2017-08-01T13:02:51.080Z,16.70
2017-08-01T13:05:17.386Z,16.70
2017-08-01T13:07:43.663Z,16.00
2017-08-01T13:10:10.334Z,16.50
2017-08-01T13:12:36.649Z,16.50
2017-08-01T13:15:03.157Z,16.20
2017-08-01T13:17:29.481Z,16.10
2017-08-01T13:19:55.764Z,16.00
2017-08-01T13:22:22.080Z,16.50
2017-08-01T13:24:48.365Z,16.10
2017-08-01T13:27:14.659Z,15.80
2017-08-01T13:29:40.932Z,15.50
2017-08-01T13:32:07.216Z,16.90
2017-08-01T13:34:33.506Z,17.60
2017-08-01T13:36:59.788Z,18.10
2017-08-01T13:39:26.101Z,16.60
2017-08-01T13:41:52.373Z,16.70
2017-08-01T13:44:18.658Z,16.40
2017-08-01T13:46:44.974Z,17.40
2017-08-01T13:49:11.636Z,16.20
2017-08-01T13:51:37.908Z,15.80
2017-08-01T13:54:04.178Z,18.20
2017-08-01T13:56:30.458Z,18.10
2017-08-01T13:58:56.735Z,17.10
2017-08-01T14:01:23.018Z,16.50
2017-08-01T14:03:49.292Z,16.70
2017-08-01T14:06:15.587Z,16.20
2017-08-01T14:08:41.888Z,16.30
2017-08-01T14:11:09.146Z,16.20
2017-08-01T14:13:35.410Z,15.50
2017-08-01T14:16:02.791Z,15.90
2017-08-01T14:18:29.122Z,16.00
2017-08-01T14:20:55.487Z,15.90
2017-08-01T14:23:21.774Z,16.70
2017-08-01T14:25:48.062Z,16.70
2017-08-01T14:28:14.341Z,16.50
2017-08-01T14:30:40.615Z,16.00
2017-08-01T14:33:06.919Z,15.70
2017-08-01T14:35:33.208Z,16.10
2017-08-01T14:37:59.850Z,16.90
2017-08-01T14:40:26.110Z,16.90
2017-08-01T14:42:52.634Z,16.90
2017-08-01T14:45:18.955Z,16.80
2017-08-01T14:47:45.276Z,16.80
2017-08-01T14:50:11.586Z,16.90
2017-08-01T14:52:37.831Z,16.40
2017-08-01T14:55:04.126Z,17.80
2017-08-01T14:57:31.056Z,20.20
2017-08-01T14:59:57.356Z,22.10
2017-08-01T15:02:23.691Z,23.80
2017-08-01T15:04:50.002Z,25.40
2017-08-01T15:07:16.292Z,27.30
2017-08-01T15:09:43.116Z,26.00
2017-08-01T15:12:09.393Z,25.50
2017-08-01T15:14:35.662Z,22.80
2017-08-01T15:17:01.955Z,21.40
2017-08-01T15:19:28.301Z,21.00
2017-08-01T15:21:54.615Z,21.00
2017-08-01T15:24:20.935Z,20.40
2017-08-01T15:26:47.244Z,19.80
2017-08-01T15:29:13.508Z,19.20
2017-08-01T15:31:40.204Z,20.00
2017-08-01T15:34:06.490Z,19.60
2017-08-01T15:36:33.329Z,20.00
2017-08-01T15:38:59.691Z,19.50
2017-08-01T15:41:26.021Z,19.60
2017-08-01T15:43:52.402Z,21.00
2017-08-01T15:46:18.674Z,22.60
2017-08-01T15:48:46.238Z,21.70
2017-08-01T15:51:12.552Z,23.70
2017-08-01T15:53:38.824Z,24.20
2017-08-01T15:56:05.196Z,24.60
2017-08-01T15:58:31.492Z,25.90
2017-08-01T16:00:58.042Z,26.40
2017-08-01T16:03:24.337Z,29.80
2017-08-01T16:05:50.652Z,32.90
2017-08-01T16:08:17.001Z,35.80
2017-08-01T16:10:43.280Z,37.70
2017-08-01T16:13:09.613Z,39.10
2017-08-01T16:15:35.901Z,50.60
2017-08-01T16:18:02.207Z,48.20
2017-08-01T16:20:28.468Z,48.50
2017-08-01T16:22:54.785Z,49.40
2017-08-01T16:25:21.054Z,43.20
2017-08-01T16:27:47.751Z,45.20
2017-08-01T16:30:14.819Z,44.00
2017-08-01T16:32:41.107Z,44.80
2017-08-01T16:35:07.447Z,45.50
2017-08-01T16:37:33.750Z,44.40
2017-08-01T16:40:00.061Z,45.10
2017-08-01T16:42:26.318Z,44.70
2017-08-01T16:44:52.606Z,45.30
2017-08-01T16:47:18.891Z,45.60
2017-08-01T16:49:45.214Z,45.90
2017-08-01T16:52:11.534Z,45.70
2017-08-01T16:54:37.824Z,48.50
2017-08-01T16:57:04.510Z,50.60
2017-08-01T16:59:30.880Z,50.60
2017-08-01T17:01:57.190Z,49.20
2017-08-01T17:04:23.482Z,50.20
2017-08-01T17:06:50.466Z,48.60
2017-08-01T17:09:16.815Z,51.30
2017-08-01T17:11:43.121Z,51.50
2017-08-01T17:14:09.899Z,53.50
2017-08-01T17:16:36.566Z,53.90
2017-08-01T17:19:02.872Z,53.90
2017-08-01T17:21:29.183Z,57.30
2017-08-01T17:23:55.512Z,57.00
2017-08-01T17:26:21.831Z,56.00
2017-08-01T17:28:48.111Z,57.40
2017-08-01T17:31:14.404Z,55.70
2017-08-01T17:33:40.940Z,56.70
2017-08-01T17:36:07.669Z,59.00
2017-08-01T17:38:33.972Z,60.70
2017-08-01T17:41:00.267Z,62.40
2017-08-01T17:43:26.553Z,63.70
2017-08-01T17:45:52.853Z,64.90
2017-08-01T17:48:19.242Z,66.80
2017-08-01T17:50:45.541Z,69.10
2017-08-01T17:53:11.850Z,71.00
2017-08-01T17:55:38.151Z,68.90
2017-08-01T17:58:04.493Z,71.90
2017-08-01T18:00:30.818Z,66.80
2017-08-01T18:02:57.138Z,72.30
2017-08-01T18:05:23.438Z,72.30
2017-08-01T18:07:49.726Z,72.90
2017-08-01T18:10:15.996Z,72.80
2017-08-01T18:12:42.666Z,69.50
2017-08-01T18:15:08.953Z,70.10
2017-08-01T18:17:35.251Z,69.70
2017-08-01T18:20:01.588Z,67.40
2017-08-01T18:22:27.827Z,68.50
2017-08-01T18:24:54.123Z,69.50
2017-08-01T18:27:20.409Z,67.00
2017-08-01T18:29:47.032Z,66.40
2017-08-01T18:32:13.360Z,67.10
2017-08-01T18:34:39.638Z,69.60
2017-08-01T18:37:05.925Z,67.90
2017-08-01T18:39:32.215Z,69.00
2017-08-01T18:41:58.589Z,70.30
2017-08-01T18:44:24.883Z,69.90
2017-08-01T18:46:51.201Z,70.80
2017-08-01T18:49:18.458Z,70.80
2017-08-01T18:51:45.155Z,70.50
2017-08-01T18:54:11.487Z,71.10
2017-08-01T18:56:37.810Z,70.80
2017-08-01T18:59:04.125Z,70.90
2017-08-01T19:01:30.420Z,71.60
2017-08-01T19:03:56.761Z,72.60
2017-08-01T19:06:23.039Z,72.00
2017-08-01T19:08:49.345Z,72.50
2017-08-01T19:11:16.567Z,72.60
2017-08-01T19:13:42.821Z,72.30
2017-08-01T19:16:09.129Z,71.90
2017-08-01T19:18:35.428Z,71.50
2017-08-01T19:21:02.127Z,72.40
2017-08-01T19:23:29.350Z,72.40
2017-08-01T19:25:55.656Z,72.60
2017-08-01T19:28:21.947Z,72.60
2017-08-01T19:30:48.274Z,72.90
2017-08-01T19:33:14.535Z,72.90
2017-08-01T19:35:40.842Z,73.10
2017-08-01T19:38:07.120Z,73.30
2017-08-01T19:40:33.425Z,71.60
2017-08-01T19:42:59.742Z,73.70
2017-08-01T19:45:26.055Z,71.90
2017-08-01T19:47:53.350Z,71.70
2017-08-01T19:50:20.139Z,70.60
2017-08-01T19:52:46.775Z,73.00
2017-08-01T19:55:13.066Z,71.30
2017-08-01T19:57:39.366Z,71.00
2017-08-01T20:00:06.078Z,71.20
2017-08-01T20:02:33.775Z,71.20
2017-08-01T20:05:00.081Z,71.60
2017-08-01T20:07:26.411Z,72.10
2017-08-01T20:09:52.755Z,72.70
2017-08-01T20:12:19.113Z,73.40
2017-08-01T20:14:46.097Z,71.40
2017-08-01T20:17:12.451Z,73.10
2017-08-01T20:19:39.536Z,71.70
2017-08-01T20:22:06.171Z,72.60
2017-08-01T20:24:32.476Z,72.30
2017-08-01T20:26:59.410Z,72.40
2017-08-01T20:29:25.720Z,74.50
2017-08-01T20:31:52.001Z,76.00
2017-08-01T20:34:19.487Z,79.80
2017-08-01T20:36:45.839Z,79.50
2017-08-01T20:39:12.109Z,83.00
2017-08-01T20:41:38.395Z,84.40
2017-08-01T20:44:04.711Z,86.30
2017-08-01T20:46:32.436Z,84.00
2017-08-01T20:48:58.731Z,85.00
2017-08-01T20:51:25.007Z,86.10
2017-08-01T20:53:51.306Z,87.90
2017-08-01T20:56:17.642Z,87.20
2017-08-01T20:58:45.627Z,87.60
2017-08-01T21:01:14.592Z,87.00
2017-08-01T21:03:40.870Z,87.50
2017-08-01T21:06:07.165Z,85.10
2017-08-01T21:08:33.481Z,85.20
2017-08-01T21:10:59.758Z,84.20
2017-08-01T21:13:27.436Z,84.30
2017-08-01T21:15:53.721Z,83.20
2017-08-01T21:18:20.929Z,82.90
2017-08-01T21:20:48.206Z,82.70
2017-08-01T21:23:14.492Z,83.10
2017-08-01T21:25:40.821Z,83.40
2017-08-01T21:28:07.169Z,83.20
2017-08-01T21:30:36.317Z,82.80
2017-08-01T21:33:02.963Z,83.30
2017-08-01T21:35:29.256Z,83.30
2017-08-01T21:37:56.435Z,82.60
2017-08-01T21:40:24.929Z,82.60
2017-08-01T21:42:51.208Z,82.60
2017-08-01T21:45:17.576Z,83.60
2017-08-01T21:47:44.243Z,84.70
2017-08-01T21:50:10.585Z,84.70
2017-08-01T21:52:36.865Z,83.60
2017-08-01T21:55:03.585Z,82.90
2017-08-01T21:57:29.864Z,82.90
2017-08-01T21:59:57.124Z,83.80
2017-08-01T22:02:23.414Z,82.80
2017-08-01T22:04:50.787Z,82.00
2017-08-01T22:07:17.727Z,81.80
2017-08-01T22:09:44.015Z,81.70
2017-08-01T22:12:10.285Z,81.50
2017-08-01T22:14:36.609Z,81.60
2017-08-01T22:17:03.627Z,82.10
2017-08-01T22:19:30.716Z,82.40
2017-08-01T22:21:57.037Z,82.30
2017-08-01T22:24:23.301Z,82.00
2017-08-01T22:26:50.802Z,81.80
2017-08-01T22:29:17.119Z,81.30
2017-08-01T22:31:43.406Z,81.60
2017-08-01T22:34:09.686Z,81.60
2017-08-01T22:36:35.997Z,81.80
2017-08-01T22:39:02.347Z,81.80
2017-08-01T22:41:30.627Z,81.50
2017-08-01T22:43:58.249Z,80.90
2017-08-01T22:46:26.122Z,81.90
2017-08-01T22:48:52.757Z,82.40
2017-08-01T22:51:19.016Z,81.50
2017-08-01T22:53:45.955Z,81.60
2017-08-01T22:56:15.301Z,80.80
2017-08-01T22:58:47.495Z,80.10
2017-08-01T23:01:13.777Z,81.40
2017-08-01T23:03:40.553Z,85.80
2017-08-01T23:06:13.894Z,85.90
2017-08-01T23:08:41.162Z,86.30
2017-08-01T23:11:08.483Z,85.00
2017-08-01T23:13:35.777Z,84.70
2017-08-01T23:16:04.116Z,83.60
2017-08-01T23:18:31.056Z,83.60
2017-08-01T23:20:57.322Z,83.60
2017-08-01T23:23:23.993Z,83.40
2017-08-01T23:25:52.782Z,83.40
2017-08-01T23:28:19.074Z,83.40
2017-08-01T23:30:45.733Z,83.20
2017-08-01T23:33:12.402Z,83.40
2017-08-01T23:35:38.686Z,83.40
2017-08-01T23:38:04.993Z,83.30
2017-08-01T23:40:32.058Z,83.30
2017-08-01T23:42:58.325Z,83.10
2017-08-01T23:45:26.496Z,82.50
2017-08-01T23:47:54.249Z,82.80
2017-08-01T23:50:22.442Z,82.80
2017-08-01T23:52:49.247Z,82.30
2017-08-01T23:55:15.849Z,82.70
2017-08-01T23:57:42.133Z,84.00
